Oaklandon, Indiana
Current Conditions -  °F | °C
As of 8:35 PM on Monday 24 Nov 2014 (Local Time) from KMQJ Reporting Station
Overcast Overcast  
Wind Chill: 27°   Ceiling: 3300
Heat Index: 37°   Visibility: 10mi
Dew Point: 23°   Wind: 22mph
Humidity: 56%   Direction: 250°WSW
Pressure: 29.84"   Gusts: 30mph
Location:  39.8642°N, 86.0139°W
Report Text: KMQJ 250135Z AUTO 25019G26KT 10SM BKN033 OVC038 03/M05 A2984 RMK AO1
Loading
Personal Weather Stations






























Interactive Weather Map New forecast layout! Learn more

10-Day Weather Forecast

Advertisements
Track Severe Weather on mobile